KBGD/BGD METAR and TAF weather

Enter ICAO airport designator
Station Type Date Time Source
KBGD METAR 2019/10/21 22:51 UTC NOAA

KBGD 212251Z AUTO 22004KT 10SM CLR 17/M09 A2998 RMK AO2 SLP138 T01721094


Station Type Date Time Source
KBGD Decoded METAR 2019/10/21 22:51 UTC NOAA

BORGER HUTCHINSON CO AIRPORT , TX, United States (KBGD) 35-42N 101-24W 927M
Oct 21, 2019 - 06:51 PM EDT / 2019.10.21 2251 UTC
Wind: from the SW (220 degrees) at 5 MPH (4 KT):0
Visibility: 10 mile(s):0
Sky conditions: clear
Temperature: 63.0 F (17.2 C)
Dew Point: 15.1 F (-9.4 C)
Relative Humidity: 15%
Pressure (altimeter): 29.98 in. Hg (1015 hPa)
ob: KBGD 212251Z AUTO 22004KT 10SM CLR 17/M09 A2998 RMK AO2 SLP138 T01721094
cycle: 23

Station Type Date Time Source
KBGD TAF UTC NOAA

Error!

Example: see airport list